Millers River @ Erving, Ma

Millers River at Erving
 Total Drainage Area: 372 sq. miles 
 Drainage Area Controlled by Corps Dams: 225 sq. miles (60%) 
 Warning Flow/Stage: ?? cfs / ?? feet 
 Flood Flow/Stage: 4,620 cfs / 6.4 feet 
Date Time
(Eastern)
Stage
(ft)
Flow
(cfs)
CSM
May-28 01:00 pm 2.58 342 .9
May-28 12:00 pm 2.56 333 .9
May-28 11:00 am 2.54 324 .9
May-28 10:00 am 2.53 320 .9
May-28 09:00 am 2.50 307 .8
May-28 08:00 am 2.50 307 .8
May-28 07:00 am 2.50 307 .8
May-28 06:00 am      
May-28 05:00 am 2.51 311 .8
May-28 04:00 am 2.49 303 .8
May-28 03:00 am 2.47 295 .8
May-28 02:00 am 2.48 299 .8
May-28 01:00 am 2.49 303 .8
May-28 12:00 am 2.49 303 .8
May-27 11:00 pm 2.50 307 .8
May-27 10:00 pm 2.50 307 .8
May-27 09:00 pm 2.49 303 .8
May-27 08:00 pm 2.48 299 .8
May-27 07:00 pm 2.48 299 .8
May-27 06:00 pm 2.48 299 .8
May-27 05:00 pm 2.48 299 .8
May-27 04:00 pm 2.45 286 .8
May-27 03:00 pm 2.46 291 .8
May-27 02:00 pm 2.44 283 .8
May-27 01:00 pm 2.44 283 .8
Report Generated May 28, 2022 05:31 pm